createdAt,value
2017-10-25T00:01:50.811Z,16.20
2017-10-25T00:04:19.045Z,16.20
2017-10-25T00:06:46.530Z,16.10
2017-10-25T00:09:13.986Z,16.20
2017-10-25T00:11:41.452Z,16.20
2017-10-25T00:14:09.816Z,16.20
2017-10-25T00:16:38.203Z,16.20
2017-10-25T00:19:05.868Z,16.20
2017-10-25T00:21:34.097Z,16.20
2017-10-25T00:24:01.567Z,16.20
2017-10-25T00:26:29.031Z,16.20
2017-10-25T00:28:56.506Z,16.20
2017-10-25T00:31:23.973Z,16.30
2017-10-25T00:33:52.227Z,16.30
2017-10-25T00:36:19.702Z,16.30
2017-10-25T00:38:47.176Z,16.30
2017-10-25T00:41:14.642Z,16.30
2017-10-25T00:43:42.117Z,16.20
2017-10-25T00:46:09.591Z,16.20
2017-10-25T00:48:37.069Z,16.20
2017-10-25T00:51:04.541Z,16.20
2017-10-25T00:53:32.769Z,16.20
2017-10-25T00:56:00.269Z,16.20
2017-10-25T00:58:27.730Z,16.20
2017-10-25T01:00:55.198Z,16.20
2017-10-25T01:03:24.092Z,16.20
2017-10-25T01:05:52.327Z,16.20
2017-10-25T01:08:19.794Z,16.20
2017-10-25T01:10:47.249Z,16.20
2017-10-25T01:13:15.469Z,16.20
2017-10-25T01:15:42.948Z,16.10
2017-10-25T01:18:10.413Z,16.20
2017-10-25T01:20:37.894Z,16.20
2017-10-25T01:23:06.122Z,16.20
2017-10-25T01:25:33.652Z,16.20
2017-10-25T01:28:01.900Z,16.20
2017-10-25T01:30:30.997Z,16.20
2017-10-25T01:32:58.562Z,16.20
2017-10-25T01:35:26.789Z,16.20
2017-10-25T01:37:54.254Z,16.20
2017-10-25T01:40:22.196Z,16.20
2017-10-25T01:42:49.717Z,16.20
2017-10-25T01:45:17.370Z,16.20
2017-10-25T01:47:44.902Z,16.20
2017-10-25T01:50:12.397Z,16.20
2017-10-25T01:52:39.841Z,16.20
2017-10-25T01:55:07.324Z,16.20
2017-10-25T01:57:34.793Z,16.20
2017-10-25T02:00:02.300Z,16.20
2017-10-25T02:02:29.750Z,16.20
2017-10-25T02:04:57.240Z,16.30
2017-10-25T02:07:25.264Z,16.30
2017-10-25T02:09:52.778Z,16.30
2017-10-25T02:12:21.018Z,16.30
2017-10-25T02:14:48.477Z,16.30
2017-10-25T02:17:15.981Z,16.30
2017-10-25T02:19:44.219Z,16.30
2017-10-25T02:22:11.691Z,16.30
2017-10-25T02:24:39.146Z,16.30
2017-10-25T02:27:06.613Z,16.40
2017-10-25T02:29:34.843Z,16.30
2017-10-25T02:32:02.321Z,16.40
2017-10-25T02:34:29.789Z,16.40
2017-10-25T02:36:57.860Z,16.40
2017-10-25T02:39:25.332Z,16.40
2017-10-25T02:41:53.566Z,16.40
2017-10-25T02:44:21.037Z,16.40
2017-10-25T02:46:49.275Z,16.40
2017-10-25T02:49:16.758Z,16.40
2017-10-25T02:51:44.950Z,16.40
2017-10-25T02:54:13.932Z,16.40
2017-10-25T02:56:41.389Z,16.40
2017-10-25T02:59:08.941Z,16.40
2017-10-25T03:01:36.620Z,16.50
2017-10-25T03:04:04.857Z,16.50
2017-10-25T03:06:32.454Z,16.50
2017-10-25T03:08:59.905Z,16.40
2017-10-25T03:11:27.476Z,16.40
2017-10-25T03:13:54.986Z,16.40
2017-10-25T03:16:22.471Z,16.40
2017-10-25T03:21:24.631Z,16.40
2017-10-25T03:23:52.185Z,16.40
2017-10-25T03:26:19.645Z,16.50
2017-10-25T03:28:47.131Z,16.50
2017-10-25T03:31:14.629Z,16.50
2017-10-25T03:33:42.980Z,16.50
2017-10-25T03:36:10.561Z,16.50
2017-10-25T03:38:38.811Z,16.40
2017-10-25T03:41:06.265Z,16.40
2017-10-25T03:43:33.744Z,16.40
2017-10-25T03:46:01.980Z,16.40
2017-10-25T03:48:29.532Z,16.40
2017-10-25T03:50:57.005Z,16.40
2017-10-25T03:53:24.480Z,16.40
2017-10-25T03:55:51.954Z,16.40
2017-10-25T03:58:20.182Z,16.40
2017-10-25T04:00:47.656Z,16.40
2017-10-25T04:03:15.125Z,16.40
2017-10-25T04:05:42.787Z,16.50
2017-10-25T04:08:10.293Z,16.50
2017-10-25T04:10:37.782Z,16.50
2017-10-25T04:13:05.258Z,16.50
2017-10-25T04:15:32.745Z,16.50
2017-10-25T04:18:00.221Z,16.50
2017-10-25T04:20:27.818Z,16.50
2017-10-25T04:22:55.309Z,16.60
2017-10-25T04:25:23.599Z,16.60
2017-10-25T04:27:51.067Z,16.50
2017-10-25T04:30:18.528Z,16.60
2017-10-25T04:32:46.030Z,16.60
2017-10-25T04:35:13.496Z,16.50
2017-10-25T04:37:40.963Z,16.50
2017-10-25T04:40:09.188Z,16.50
2017-10-25T04:42:36.686Z,16.50
2017-10-25T04:45:04.156Z,16.60
2017-10-25T04:47:32.397Z,16.50
2017-10-25T04:50:00.102Z,16.50
2017-10-25T04:52:27.594Z,16.50
2017-10-25T04:54:55.222Z,16.50
2017-10-25T04:57:22.680Z,16.50
2017-10-25T04:59:50.142Z,16.50
2017-10-25T05:02:17.635Z,16.50
2017-10-25T05:04:45.105Z,16.50
2017-10-25T05:07:12.558Z,16.50
2017-10-25T05:09:41.532Z,16.50
2017-10-25T05:12:09.000Z,16.50
2017-10-25T05:14:36.465Z,16.50
2017-10-25T05:17:03.949Z,16.50
2017-10-25T05:19:32.371Z,16.50
2017-10-25T05:21:59.861Z,16.50
2017-10-25T05:24:27.329Z,16.50
2017-10-25T05:26:55.571Z,16.50
2017-10-25T05:29:23.050Z,16.50
2017-10-25T05:31:50.528Z,16.50
2017-10-25T05:34:17.990Z,16.50
2017-10-25T05:36:46.207Z,16.50
2017-10-25T05:39:13.715Z,16.40
2017-10-25T05:41:41.173Z,16.50
2017-10-25T05:44:08.650Z,16.50
2017-10-25T05:46:36.970Z,16.50
2017-10-25T05:49:04.544Z,16.50
2017-10-25T05:51:32.116Z,16.40
2017-10-25T05:54:00.366Z,16.40
2017-10-25T05:56:27.830Z,16.50
2017-10-25T05:58:55.301Z,16.50
2017-10-25T06:01:23.552Z,16.40
2017-10-25T06:03:51.049Z,16.40
2017-10-25T06:06:19.287Z,16.40
2017-10-25T06:08:46.753Z,16.40
2017-10-25T06:11:14.229Z,16.40
2017-10-25T06:13:41.689Z,16.40
2017-10-25T06:16:09.135Z,16.40
2017-10-25T06:18:36.604Z,16.40
2017-10-25T06:21:04.828Z,16.30
2017-10-25T06:23:32.317Z,16.30
2017-10-25T06:25:59.793Z,16.30
2017-10-25T06:28:27.281Z,16.30
2017-10-25T06:30:54.735Z,16.20
2017-10-25T06:33:22.199Z,16.20
2017-10-25T06:35:49.763Z,16.20
2017-10-25T06:38:17.228Z,16.20
2017-10-25T06:40:44.705Z,16.20
2017-10-25T06:43:12.165Z,16.10
2017-10-25T06:45:39.645Z,16.10
2017-10-25T06:48:07.112Z,16.20
2017-10-25T06:50:35.367Z,16.20
2017-10-25T06:53:02.831Z,16.10
2017-10-25T06:55:30.320Z,16.20
2017-10-25T06:57:57.768Z,16.10
2017-10-25T07:00:26.010Z,16.10
2017-10-25T07:02:53.484Z,16.20
2017-10-25T07:05:20.957Z,16.20
2017-10-25T07:07:49.262Z,16.20
2017-10-25T07:10:16.720Z,16.20
2017-10-25T07:12:44.192Z,16.20
2017-10-25T07:15:11.657Z,16.20
2017-10-25T07:17:39.201Z,16.20
2017-10-25T07:20:06.673Z,16.20
2017-10-25T07:22:34.146Z,16.20
2017-10-25T07:25:02.496Z,16.30
2017-10-25T07:27:29.958Z,16.30
2017-10-25T07:29:57.433Z,16.40
2017-10-25T07:32:24.901Z,16.40
2017-10-25T07:34:53.019Z,16.40
2017-10-25T07:37:20.484Z,16.40
2017-10-25T07:39:48.086Z,16.40
2017-10-25T07:42:15.548Z,16.40
2017-10-25T07:44:43.204Z,16.50
2017-10-25T07:47:12.175Z,16.50
2017-10-25T07:49:39.658Z,16.50
2017-10-25T07:52:08.621Z,16.50
2017-10-25T07:54:36.110Z,16.50
2017-10-25T07:57:03.581Z,16.50
2017-10-25T07:59:31.820Z,16.50
2017-10-25T08:01:59.268Z,16.50
2017-10-25T08:04:26.737Z,16.50
2017-10-25T08:06:54.413Z,16.50
2017-10-25T08:09:22.638Z,16.50
2017-10-25T08:11:50.137Z,16.50
2017-10-25T08:14:18.085Z,16.60
2017-10-25T08:16:45.809Z,16.60
2017-10-25T08:19:14.049Z,16.60
2017-10-25T08:21:42.280Z,16.60
2017-10-25T08:24:09.749Z,16.60
2017-10-25T08:26:37.214Z,16.60
2017-10-25T08:29:04.838Z,16.60
2017-10-25T08:31:32.312Z,16.60
2017-10-25T08:33:59.870Z,16.60
2017-10-25T08:36:27.425Z,16.60
2017-10-25T08:38:55.046Z,16.60
2017-10-25T08:41:23.287Z,16.60
2017-10-25T08:43:50.861Z,16.60
2017-10-25T08:46:19.096Z,16.70
2017-10-25T08:48:46.562Z,16.60
2017-10-25T08:51:14.046Z,16.70
2017-10-25T08:53:41.542Z,16.70
2017-10-25T08:56:09.794Z,16.70
2017-10-25T08:58:37.305Z,16.70
2017-10-25T09:01:04.788Z,16.80
2017-10-25T09:03:32.249Z,16.80
2017-10-25T09:05:59.733Z,16.80
2017-10-25T09:08:28.014Z,16.80
2017-10-25T09:10:56.246Z,16.80
2017-10-25T09:13:23.715Z,16.80
2017-10-25T09:15:51.168Z,16.80
2017-10-25T09:18:19.403Z,16.80
2017-10-25T09:20:46.864Z,16.80
2017-10-25T09:23:14.349Z,16.90
2017-10-25T09:25:41.977Z,16.90
2017-10-25T09:28:09.460Z,17.00
2017-10-25T09:30:37.657Z,17.10
2017-10-25T09:33:05.128Z,17.10
2017-10-25T09:35:33.350Z,17.20
2017-10-25T09:38:00.805Z,17.10
2017-10-25T09:40:28.350Z,17.10
2017-10-25T09:42:55.797Z,17.10
2017-10-25T09:45:23.284Z,17.20
2017-10-25T09:47:50.749Z,17.30
2017-10-25T09:50:18.228Z,17.40
2017-10-25T09:52:45.689Z,17.50
2017-10-25T09:55:13.939Z,17.60
2017-10-25T09:57:41.414Z,17.60
2017-10-25T10:00:08.907Z,17.60
2017-10-25T10:02:37.125Z,17.40
2017-10-25T10:05:04.597Z,17.40
2017-10-25T10:07:32.267Z,17.30
2017-10-25T10:09:59.724Z,17.20
2017-10-25T10:12:27.317Z,17.20
2017-10-25T10:14:54.833Z,17.20
2017-10-25T10:17:22.303Z,17.10
2017-10-25T10:19:49.866Z,17.20
2017-10-25T10:22:17.336Z,17.20
2017-10-25T10:24:44.837Z,17.20
2017-10-25T10:27:12.537Z,17.20
2017-10-25T10:29:40.776Z,17.10
2017-10-25T10:32:08.229Z,17.10
2017-10-25T10:34:35.712Z,17.10
2017-10-25T10:37:03.189Z,17.20
2017-10-25T10:39:30.660Z,17.40
2017-10-25T10:41:58.890Z,17.40
2017-10-25T10:44:26.361Z,17.40
2017-10-25T10:46:53.826Z,17.30
2017-10-25T10:49:23.569Z,17.20
2017-10-25T10:51:51.816Z,17.30
2017-10-25T10:54:19.352Z,17.30
2017-10-25T10:56:46.841Z,17.20
2017-10-25T10:59:15.088Z,17.30
2017-10-25T11:01:42.630Z,17.20
2017-10-25T11:04:10.080Z,17.30
2017-10-25T11:06:37.557Z,17.20
2017-10-25T11:09:05.022Z,17.20
2017-10-25T11:11:32.505Z,17.20
2017-10-25T11:14:00.736Z,17.20
2017-10-25T11:16:28.217Z,17.20
2017-10-25T11:18:56.443Z,17.20
2017-10-25T11:21:23.900Z,17.20
2017-10-25T11:23:51.474Z,17.30
2017-10-25T11:26:18.949Z,17.30
2017-10-25T11:28:46.448Z,17.30
2017-10-25T11:31:14.670Z,17.30
2017-10-25T11:33:42.137Z,17.30
2017-10-25T11:36:09.613Z,17.30
2017-10-25T11:38:37.853Z,17.30
2017-10-25T11:41:05.346Z,17.30
2017-10-25T11:43:32.817Z,17.30
2017-10-25T11:46:01.083Z,17.30
2017-10-25T11:48:28.529Z,17.30
2017-10-25T11:50:56.004Z,17.30
2017-10-25T11:53:23.473Z,17.30
2017-10-25T11:55:51.717Z,17.30
2017-10-25T11:58:19.188Z,17.30
2017-10-25T12:00:46.653Z,17.30
2017-10-25T12:03:14.885Z,17.30
2017-10-25T12:05:42.414Z,17.30
2017-10-25T12:08:09.887Z,17.20
2017-10-25T12:10:37.345Z,17.20
2017-10-25T12:13:04.818Z,17.10
2017-10-25T12:15:32.279Z,17.10
2017-10-25T12:17:59.773Z,17.10
2017-10-25T12:20:27.225Z,17.00
2017-10-25T12:22:55.450Z,17.00
2017-10-25T12:25:22.920Z,16.90
2017-10-25T12:27:50.384Z,16.90
2017-10-25T12:30:17.860Z,16.90
2017-10-25T12:32:45.318Z,16.90
2017-10-25T12:35:12.780Z,17.00
2017-10-25T12:37:40.616Z,17.00
2017-10-25T12:40:08.085Z,17.10
2017-10-25T12:42:35.568Z,17.00
2017-10-25T12:45:03.890Z,17.10
2017-10-25T12:47:32.206Z,17.10
2017-10-25T12:49:59.758Z,17.20
2017-10-25T12:52:27.232Z,17.20
2017-10-25T12:54:55.498Z,17.20
2017-10-25T12:57:23.063Z,17.20
2017-10-25T12:59:50.533Z,17.30
2017-10-25T13:02:19.989Z,17.20
2017-10-25T13:04:47.530Z,17.20
2017-10-25T13:07:15.019Z,17.20
2017-10-25T13:09:42.482Z,17.20
2017-10-25T13:12:26.447Z,17.10
2017-10-25T13:15:01.183Z,17.20
2017-10-25T13:17:36.776Z,17.20
2017-10-25T13:20:04.313Z,17.10
2017-10-25T13:22:31.833Z,17.10
2017-10-25T13:24:59.437Z,17.10
2017-10-25T13:27:26.917Z,17.10
2017-10-25T13:29:54.407Z,17.00
2017-10-25T13:32:21.874Z,17.10
2017-10-25T13:34:50.139Z,17.00
2017-10-25T13:37:17.590Z,17.00
2017-10-25T13:39:45.068Z,16.90
2017-10-25T13:42:13.310Z,16.90
2017-10-25T13:44:40.783Z,16.90
2017-10-25T13:47:08.238Z,16.90
2017-10-25T13:49:35.736Z,16.90
2017-10-25T13:52:03.197Z,16.90
2017-10-25T13:54:30.669Z,16.80
2017-10-25T13:56:58.265Z,16.90
2017-10-25T13:59:25.733Z,16.80
2017-10-25T14:01:53.990Z,16.80
2017-10-25T14:04:21.446Z,16.80
2017-10-25T14:06:49.676Z,16.70
2017-10-25T14:09:17.155Z,16.70
2017-10-25T14:11:44.770Z,16.80
2017-10-25T14:14:13.020Z,16.80
2017-10-25T14:16:40.482Z,16.70
2017-10-25T14:19:08.518Z,16.70
2017-10-25T14:21:35.991Z,16.60
2017-10-25T14:24:03.462Z,16.60
2017-10-25T14:26:42.946Z,16.70
2017-10-25T14:29:10.561Z,16.70
2017-10-25T14:31:40.440Z,16.70
2017-10-25T14:34:07.924Z,16.70
2017-10-25T14:36:35.391Z,16.70
2017-10-25T14:39:02.910Z,16.70
2017-10-25T14:41:30.430Z,16.70
2017-10-25T14:44:00.167Z,16.60
2017-10-25T14:46:27.776Z,16.60
2017-10-25T14:48:56.041Z,16.60
2017-10-25T14:51:23.507Z,16.60
2017-10-25T14:53:51.042Z,16.60
2017-10-25T14:56:18.536Z,16.60
2017-10-25T14:58:46.781Z,16.60
2017-10-25T15:01:14.401Z,16.60
2017-10-25T15:03:41.877Z,16.60
2017-10-25T15:06:09.370Z,16.60
2017-10-25T15:08:36.984Z,16.60
2017-10-25T15:11:04.490Z,16.50
2017-10-25T15:13:32.001Z,16.50
2017-10-25T15:15:59.506Z,16.40
2017-10-25T15:18:27.061Z,16.30
2017-10-25T15:20:54.534Z,16.10
2017-10-25T15:23:22.779Z,15.90
2017-10-25T15:25:50.261Z,15.90
2017-10-25T15:28:17.722Z,15.90
2017-10-25T15:30:45.953Z,15.90
2017-10-25T15:33:13.451Z,15.90
2017-10-25T15:35:41.721Z,15.90
2017-10-25T15:38:09.969Z,15.90
2017-10-25T15:40:37.448Z,15.90
2017-10-25T15:43:05.054Z,15.90
2017-10-25T15:45:32.698Z,15.90
2017-10-25T15:48:00.931Z,15.70
2017-10-25T15:50:28.551Z,15.70
2017-10-25T15:52:56.021Z,15.60
2017-10-25T15:55:23.519Z,15.60
2017-10-25T15:57:50.997Z,15.50
2017-10-25T16:00:19.232Z,15.50
2017-10-25T16:02:46.752Z,15.40
2017-10-25T16:05:14.359Z,15.40
2017-10-25T16:07:41.997Z,15.40
2017-10-25T16:10:09.488Z,15.40
2017-10-25T16:12:37.731Z,15.40
2017-10-25T16:15:05.702Z,15.40
2017-10-25T16:17:33.198Z,15.40
2017-10-25T16:20:01.432Z,15.50
2017-10-25T16:22:28.912Z,15.50
2017-10-25T16:24:56.398Z,15.50
2017-10-25T16:27:24.651Z,15.40
2017-10-25T16:29:52.125Z,15.40
2017-10-25T16:32:20.373Z,15.50
2017-10-25T16:34:47.854Z,15.50
2017-10-25T16:37:16.197Z,15.40
2017-10-25T16:39:43.673Z,15.40
2017-10-25T16:42:16.288Z,15.40
2017-10-25T16:44:44.509Z,15.40
2017-10-25T16:47:11.981Z,15.40
2017-10-25T16:49:40.973Z,15.40
2017-10-25T16:52:08.432Z,15.40
2017-10-25T16:54:35.945Z,15.50
2017-10-25T16:57:03.528Z,15.40
2017-10-25T16:59:31.021Z,15.40
2017-10-25T17:01:59.290Z,15.40
2017-10-25T17:04:26.756Z,15.40
2017-10-25T17:06:55.016Z,15.40
2017-10-25T17:09:24.099Z,15.40
2017-10-25T17:11:51.582Z,15.40
2017-10-25T17:14:19.818Z,15.40
2017-10-25T17:16:47.292Z,15.40
2017-10-25T17:19:16.281Z,15.40
2017-10-25T17:21:44.550Z,15.40
2017-10-25T17:24:12.006Z,15.40
2017-10-25T17:26:39.514Z,15.40
2017-10-25T17:29:06.990Z,15.30
2017-10-25T17:31:36.448Z,15.30
2017-10-25T17:34:04.071Z,15.30
2017-10-25T17:36:31.665Z,15.30
2017-10-25T17:38:59.141Z,15.30
2017-10-25T17:41:27.403Z,15.30
2017-10-25T17:43:54.873Z,15.30
2017-10-25T17:46:23.104Z,15.30
2017-10-25T17:48:50.580Z,15.30
2017-10-25T17:51:18.045Z,15.20
2017-10-25T17:53:46.309Z,15.20
2017-10-25T17:56:13.785Z,15.20
2017-10-25T17:58:42.037Z,15.20
2017-10-25T18:01:09.541Z,15.20
2017-10-25T18:03:37.151Z,15.10
2017-10-25T18:06:04.770Z,15.20
2017-10-25T18:08:32.228Z,15.20
2017-10-25T18:10:59.722Z,15.20
2017-10-25T18:13:27.194Z,15.20
2017-10-25T18:15:54.714Z,15.20
2017-10-25T18:18:22.213Z,15.10
2017-10-25T18:20:49.676Z,15.10
2017-10-25T18:23:17.916Z,15.10
2017-10-25T18:25:45.512Z,15.00
2017-10-25T18:28:13.785Z,15.10
2017-10-25T18:30:41.245Z,15.10
2017-10-25T18:33:09.498Z,15.00
2017-10-25T18:35:37.098Z,15.00
2017-10-25T18:38:04.565Z,15.00
2017-10-25T18:40:32.046Z,15.00
2017-10-25T18:42:59.595Z,15.00
2017-10-25T18:45:27.202Z,15.00
2017-10-25T18:47:54.717Z,15.00
2017-10-25T18:50:22.180Z,15.00
2017-10-25T18:52:49.675Z,15.00
2017-10-25T18:55:18.671Z,15.00
2017-10-25T18:57:47.649Z,15.00
2017-10-25T19:00:15.112Z,15.00
2017-10-25T19:02:42.596Z,15.00
2017-10-25T19:05:10.836Z,14.90
2017-10-25T19:07:38.473Z,14.90
2017-10-25T19:10:06.001Z,14.90
2017-10-25T19:12:33.496Z,14.80
2017-10-25T19:15:00.975Z,14.80
2017-10-25T19:17:28.458Z,14.80
2017-10-25T19:19:56.698Z,14.70
2017-10-25T19:22:24.185Z,14.70
2017-10-25T19:24:52.560Z,14.60
2017-10-25T19:27:20.791Z,14.60
2017-10-25T19:29:48.346Z,14.60
2017-10-25T19:32:15.974Z,14.60
2017-10-25T19:34:44.214Z,14.60
2017-10-25T19:37:13.214Z,14.60
2017-10-25T19:39:41.422Z,14.60
2017-10-25T19:42:08.895Z,14.50
2017-10-25T19:44:36.385Z,14.60
2017-10-25T19:47:03.853Z,14.50
2017-10-25T19:49:31.402Z,14.50
2017-10-25T19:51:58.935Z,14.50
2017-10-25T19:54:26.635Z,14.50
2017-10-25T19:56:54.894Z,14.50
2017-10-25T19:59:22.369Z,14.50
2017-10-25T20:01:49.839Z,14.50
2017-10-25T20:04:18.085Z,14.50
2017-10-25T20:06:45.553Z,14.50
2017-10-25T20:09:14.580Z,14.40
2017-10-25T20:11:42.773Z,14.40
2017-10-25T20:14:10.256Z,14.50
2017-10-25T20:16:37.795Z,14.40
2017-10-25T20:19:05.330Z,14.40
2017-10-25T20:21:32.816Z,14.40
2017-10-25T20:24:00.304Z,14.30
2017-10-25T20:26:28.514Z,14.40
2017-10-25T20:28:57.205Z,14.40
2017-10-25T20:31:24.810Z,14.40
2017-10-25T20:33:52.270Z,14.40
2017-10-25T20:36:19.744Z,14.30
2017-10-25T20:38:48.081Z,14.30
2017-10-25T20:41:15.556Z,14.30
2017-10-25T20:43:43.021Z,14.40
2017-10-25T20:46:10.498Z,14.50
2017-10-25T20:48:37.978Z,14.50
2017-10-25T20:51:05.502Z,14.50
2017-10-25T20:53:32.960Z,14.50
2017-10-25T20:56:01.234Z,14.40
2017-10-25T20:58:30.217Z,14.30
2017-10-25T21:00:57.678Z,14.30
2017-10-25T21:03:25.171Z,14.40
2017-10-25T21:05:53.417Z,14.40
2017-10-25T21:08:21.804Z,14.40
2017-10-25T21:10:49.306Z,14.40
2017-10-25T21:13:16.769Z,14.40
2017-10-25T21:15:44.269Z,14.40
2017-10-25T21:18:11.730Z,14.40
2017-10-25T21:20:40.006Z,14.30
2017-10-25T21:23:07.475Z,14.30
2017-10-25T21:25:35.727Z,14.10
2017-10-25T21:28:03.194Z,14.10
2017-10-25T21:30:30.682Z,14.10
2017-10-25T21:32:58.240Z,14.10
2017-10-25T21:35:25.725Z,14.20
2017-10-25T21:37:53.333Z,14.30
2017-10-25T21:40:21.573Z,14.40
2017-10-25T21:42:49.049Z,14.40
2017-10-25T21:45:16.532Z,14.40
2017-10-25T21:47:44.791Z,14.40
2017-10-25T21:50:12.361Z,14.40
2017-10-25T21:52:40.661Z,14.40
2017-10-25T21:55:08.923Z,14.40
2017-10-25T21:57:37.153Z,14.40
2017-10-25T22:00:04.650Z,14.40
2017-10-25T22:02:32.117Z,14.30
2017-10-25T22:05:00.489Z,14.30
2017-10-25T22:07:28.739Z,14.20
2017-10-25T22:09:56.217Z,14.20
2017-10-25T22:12:24.643Z,14.20
2017-10-25T22:14:52.503Z,14.10
2017-10-25T22:17:19.959Z,14.20
2017-10-25T22:19:47.425Z,14.20
2017-10-25T22:22:14.905Z,14.30
2017-10-25T22:24:42.376Z,14.20
2017-10-25T22:27:10.618Z,14.20
2017-10-25T22:29:38.102Z,14.10
2017-10-25T22:32:06.338Z,14.30
2017-10-25T22:34:33.824Z,14.20
2017-10-25T22:37:01.287Z,14.30
2017-10-25T22:39:29.537Z,14.40
2017-10-25T22:41:57.010Z,14.40
2017-10-25T22:44:24.997Z,14.30
2017-10-25T22:46:52.659Z,14.30
2017-10-25T22:49:20.150Z,14.40
2017-10-25T22:51:47.769Z,14.30
2017-10-25T22:54:15.275Z,14.20
2017-10-25T22:56:42.839Z,14.30
2017-10-25T22:59:10.512Z,14.20
2017-10-25T23:01:38.223Z,14.10
2017-10-25T23:04:05.858Z,14.10
2017-10-25T23:06:33.421Z,14.00
2017-10-25T23:09:00.882Z,14.00
2017-10-25T23:11:28.365Z,14.00
2017-10-25T23:13:56.614Z,13.90
2017-10-25T23:16:24.091Z,13.90
2017-10-25T23:18:52.334Z,14.00
2017-10-25T23:21:19.896Z,14.00
2017-10-25T23:23:47.484Z,13.90
2017-10-25T23:26:15.760Z,13.80
2017-10-25T23:28:44.092Z,13.80
2017-10-25T23:31:11.641Z,13.80
2017-10-25T23:33:39.109Z,13.80
2017-10-25T23:36:06.584Z,13.80
2017-10-25T23:38:34.049Z,13.80
2017-10-25T23:41:01.537Z,13.70
2017-10-25T23:43:29.777Z,13.80
2017-10-25T23:45:57.259Z,13.80
2017-10-25T23:48:25.498Z,13.70
2017-10-25T23:50:52.972Z,13.70
2017-10-25T23:53:20.494Z,13.70
2017-10-25T23:55:48.044Z,13.80
2017-10-25T23:58:15.548Z,13.80
